VDPP/PNH METAR and TAF weather

Enter ICAO airport designator
Station Type Date Time Source
VDPP METAR 2021/05/11 22:00 UTC NOAA

VDPP 112200Z VRB02KT 9000 SCT017 28/25 Q1006


Station Type Date Time Source
VDPP Decoded METAR 2021/05/11 22:00 UTC NOAA

Phnom-Penh / Pochentong, Cambodia (VDPP) 11-33N 104-51E 10M
May 11, 2021 - 06:00 PM EDT / 2021.05.11 2200 UTC
Wind: Variable at 2 MPH (2 KT):0
Visibility: 5 mile(s):0
Sky conditions: partly cloudy
Temperature: 82 F (28 C)
Dew Point: 77 F (25 C)
Relative Humidity: 83%
Pressure (altimeter): 29.71 in. Hg (1006 hPa)
ob: VDPP 112200Z VRB02KT 9000 SCT017 28/25 Q1006
cycle: 22

Station Type Date Time Source
VDPP TAF 2021/05/11 18:00 UTC NOAA

TAF VDPP 111700Z 1118/1212 18008KT 9999 SCT017
TEMPO 1206/1211 SCT015 FEW017CB

Example: see airport list